createdAt,value
2023-05-06T00:00:20.537Z,13.87
2023-05-06T00:02:46.909Z,13.87
2023-05-06T00:05:13.390Z,13.84
2023-05-06T00:07:39.878Z,13.80
2023-05-06T00:10:06.515Z,13.80
2023-05-06T00:12:32.861Z,13.81
2023-05-06T00:14:59.346Z,13.78
2023-05-06T00:17:25.792Z,13.77
2023-05-06T00:19:52.323Z,13.72
2023-05-06T00:22:18.686Z,13.70
2023-05-06T00:24:44.999Z,13.74
2023-05-06T00:27:11.399Z,13.76
2023-05-06T00:29:37.819Z,13.74
2023-05-06T00:32:04.590Z,13.72
2023-05-06T00:34:30.998Z,13.71
2023-05-06T00:36:57.376Z,13.67
2023-05-06T00:39:25.101Z,13.66
2023-05-06T00:41:51.614Z,13.65
2023-05-06T00:44:18.033Z,13.65
2023-05-06T00:46:44.521Z,13.64
2023-05-06T00:49:11.758Z,13.71
2023-05-06T00:51:38.394Z,13.78
2023-05-06T00:54:05.208Z,13.76
2023-05-06T00:56:31.726Z,13.62
2023-05-06T00:58:58.631Z,13.59
2023-05-06T01:01:25.526Z,13.52
2023-05-06T01:03:52.060Z,13.46
2023-05-06T01:06:45.136Z,13.49
2023-05-06T01:09:21.146Z,13.48
2023-05-06T01:12:09.425Z,13.47
2023-05-06T01:14:49.864Z,13.44
2023-05-06T01:17:18.769Z,13.48
2023-05-06T01:19:52.103Z,13.52
2023-05-06T01:22:19.361Z,13.53
2023-05-06T01:24:46.699Z,13.50
2023-05-06T01:27:14.380Z,13.50
2023-05-06T01:29:43.078Z,13.51
2023-05-06T01:32:41.940Z,13.54
2023-05-06T01:35:35.610Z,13.70
2023-05-06T01:38:16.049Z,13.49
2023-05-06T01:40:44.777Z,13.34
2023-05-06T01:43:13.465Z,13.26
2023-05-06T01:45:41.401Z,13.19
2023-05-06T01:48:09.608Z,13.17
2023-05-06T01:50:36.876Z,13.10
2023-05-06T01:53:03.449Z,13.06
2023-05-06T01:55:29.855Z,13.05
2023-05-06T01:57:56.602Z,13.01
2023-05-06T02:00:24.123Z,12.99
2023-05-06T02:02:50.993Z,12.96
2023-05-06T02:05:17.583Z,12.93
2023-05-06T02:07:44.009Z,12.92
2023-05-06T02:10:10.640Z,12.86
2023-05-06T02:12:37.026Z,12.92
2023-05-06T02:15:03.655Z,12.92
2023-05-06T02:17:29.970Z,12.94
2023-05-06T02:19:56.411Z,12.88
2023-05-06T02:22:22.877Z,12.90
2023-05-06T02:24:49.175Z,12.90
2023-05-06T02:27:15.457Z,12.86
2023-05-06T02:29:41.859Z,12.84
2023-05-06T02:32:08.381Z,12.74
2023-05-06T02:34:34.674Z,12.75
2023-05-06T02:37:01.351Z,12.69
2023-05-06T02:39:27.711Z,12.67
2023-05-06T02:41:54.386Z,12.64
2023-05-06T02:44:20.712Z,12.64
2023-05-06T02:46:47.030Z,12.60
2023-05-06T02:49:13.457Z,12.58
2023-05-06T02:51:39.988Z,12.55
2023-05-06T02:54:06.688Z,12.58
2023-05-06T02:56:33.017Z,12.50
2023-05-06T02:58:59.442Z,12.46
2023-05-06T03:01:25.824Z,12.42
2023-05-06T03:03:52.332Z,12.44
2023-05-06T03:06:18.900Z,12.42
2023-05-06T03:08:45.302Z,12.49
2023-05-06T03:11:11.609Z,12.43
2023-05-06T03:13:38.186Z,12.45
2023-05-06T03:16:04.817Z,12.49
2023-05-06T03:18:31.138Z,12.57
2023-05-06T03:20:57.457Z,12.56
2023-05-06T03:23:23.863Z,12.55
2023-05-06T03:25:50.445Z,12.59
2023-05-06T03:28:16.851Z,12.61
2023-05-06T03:30:43.324Z,12.70
2023-05-06T03:33:09.629Z,12.70
2023-05-06T03:35:36.021Z,12.69
2023-05-06T03:38:02.566Z,12.71
2023-05-06T03:40:29.097Z,12.76
2023-05-06T03:42:55.404Z,12.75
2023-05-06T03:45:21.706Z,12.76
2023-05-06T03:47:48.482Z,12.80
2023-05-06T03:50:14.981Z,12.79
2023-05-06T03:52:41.725Z,12.83
2023-05-06T03:55:08.656Z,12.79
2023-05-06T03:57:35.244Z,12.75
2023-05-06T04:00:01.855Z,12.93
2023-05-06T04:02:28.285Z,12.94
2023-05-06T04:04:54.809Z,12.94
2023-05-06T04:07:21.147Z,13.13
2023-05-06T04:09:47.871Z,13.00
2023-05-06T04:12:14.224Z,12.99
2023-05-06T04:14:40.602Z,13.00
2023-05-06T04:17:06.921Z,12.96
2023-05-06T04:19:33.323Z,12.99
2023-05-06T04:21:59.615Z,12.94
2023-05-06T04:24:26.044Z,12.88
2023-05-06T04:26:52.420Z,12.90
2023-05-06T04:29:18.951Z,12.87
2023-05-06T04:31:45.392Z,12.87
2023-05-06T04:34:11.708Z,12.83
2023-05-06T04:36:40.612Z,12.88
2023-05-06T04:39:07.143Z,12.84
2023-05-06T04:41:33.658Z,12.98
2023-05-06T04:44:00.169Z,12.89
2023-05-06T04:46:26.590Z,12.88
2023-05-06T04:48:52.988Z,12.79
2023-05-06T04:51:19.353Z,12.85
2023-05-06T04:53:45.926Z,13.00
2023-05-06T04:56:12.644Z,12.95
2023-05-06T04:58:39.470Z,13.09
2023-05-06T05:01:09.272Z,13.09
2023-05-06T05:03:36.046Z,13.18
2023-05-06T05:06:02.780Z,13.08
2023-05-06T05:08:29.102Z,13.04
2023-05-06T05:10:55.564Z,13.02
2023-05-06T05:13:21.915Z,13.02
2023-05-06T05:15:48.738Z,13.04
2023-05-06T05:18:15.044Z,13.04
2023-05-06T05:20:41.428Z,13.07
2023-05-06T05:23:07.756Z,13.04
2023-05-06T05:25:34.297Z,13.08
2023-05-06T05:28:00.666Z,13.10
2023-05-06T05:30:27.115Z,13.13
2023-05-06T05:32:53.641Z,13.16
2023-05-06T05:35:20.108Z,13.19
2023-05-06T05:37:46.512Z,13.26
2023-05-06T05:40:13.313Z,13.36
2023-05-06T05:42:40.207Z,13.41
2023-05-06T05:45:07.686Z,13.47
2023-05-06T05:47:34.545Z,13.52
2023-05-06T05:50:00.906Z,13.69
2023-05-06T05:52:27.470Z,13.66
2023-05-06T05:54:53.910Z,13.74
2023-05-06T05:57:20.283Z,13.62
2023-05-06T05:59:46.685Z,13.68
2023-05-06T06:02:13.070Z,13.61
2023-05-06T06:04:41.241Z,13.74
2023-05-06T06:07:07.713Z,13.86
2023-05-06T06:09:34.342Z,13.89
2023-05-06T06:12:00.820Z,13.75
2023-05-06T06:14:27.326Z,13.94
2023-05-06T06:16:53.824Z,14.04
2023-05-06T06:19:20.585Z,14.11
2023-05-06T06:21:46.889Z,14.20
2023-05-06T06:24:13.320Z,14.13
2023-05-06T06:26:39.727Z,13.85
2023-05-06T06:29:06.096Z,13.84
2023-05-06T06:31:32.683Z,14.08
2023-05-06T06:33:59.045Z,14.06
2023-05-06T06:36:25.580Z,13.95
2023-05-06T06:38:52.233Z,14.14
2023-05-06T06:41:18.641Z,14.43
2023-05-06T06:43:44.934Z,14.45
2023-05-06T06:46:11.359Z,14.62
2023-05-06T06:48:37.787Z,14.80
2023-05-06T06:51:04.457Z,14.79
2023-05-06T06:53:30.992Z,14.56
2023-05-06T06:55:57.303Z,14.33
2023-05-06T06:58:23.696Z,14.36
2023-05-06T07:00:50.006Z,14.17
2023-05-06T07:03:16.345Z,14.24
2023-05-06T07:05:42.772Z,14.27
2023-05-06T07:08:09.182Z,14.39
2023-05-06T07:10:35.520Z,14.60
2023-05-06T07:13:02.121Z,14.88
2023-05-06T07:15:28.730Z,15.01
2023-05-06T07:17:55.512Z,15.07
2023-05-06T07:20:21.931Z,14.73
2023-05-06T07:22:48.417Z,14.59
2023-05-06T07:25:15.005Z,14.78
2023-05-06T07:27:41.324Z,14.68
2023-05-06T07:30:08.290Z,14.74
2023-05-06T07:32:34.650Z,14.96
2023-05-06T07:35:01.437Z,15.16
2023-05-06T07:37:28.160Z,15.10
2023-05-06T07:39:54.554Z,15.00
2023-05-06T07:42:20.967Z,15.00
2023-05-06T07:44:47.312Z,15.37
2023-05-06T07:47:25.920Z,15.44
2023-05-06T07:49:52.428Z,15.17
2023-05-06T07:52:18.740Z,15.12
2023-05-06T07:54:45.181Z,15.20
2023-05-06T07:57:11.483Z,15.22
2023-05-06T07:59:38.293Z,15.40
2023-05-06T08:02:04.661Z,15.52
2023-05-06T08:04:31.163Z,15.88
2023-05-06T08:06:57.754Z,16.01
2023-05-06T08:09:25.684Z,16.30
2023-05-06T08:11:53.446Z,16.50
2023-05-06T08:14:19.851Z,16.87
2023-05-06T08:16:46.802Z,17.14
2023-05-06T08:19:13.140Z,17.88
2023-05-06T08:21:39.478Z,19.34
2023-05-06T08:24:06.178Z,18.75
2023-05-06T08:26:32.636Z,18.67
2023-05-06T08:28:59.054Z,18.78
2023-05-06T08:31:25.563Z,18.55
2023-05-06T08:33:54.344Z,17.95
2023-05-06T08:36:21.187Z,17.95
2023-05-06T08:38:47.613Z,18.12
2023-05-06T08:41:17.049Z,18.21
2023-05-06T08:43:45.604Z,19.66
2023-05-06T08:46:12.012Z,19.71
2023-05-06T08:48:39.305Z,19.31
2023-05-06T08:51:05.662Z,19.17
2023-05-06T08:53:33.681Z,19.33
2023-05-06T08:56:06.550Z,19.71
2023-05-06T08:58:34.721Z,20.04
2023-05-06T09:01:03.161Z,20.35
2023-05-06T09:03:29.815Z,20.78
2023-05-06T09:05:57.247Z,21.18
2023-05-06T09:08:23.816Z,21.48
2023-05-06T09:10:50.818Z,21.47
2023-05-06T09:13:18.777Z,21.60
2023-05-06T09:15:47.533Z,21.80
2023-05-06T09:18:14.714Z,21.85
2023-05-06T09:20:44.981Z,22.29
2023-05-06T09:23:13.965Z,22.65
2023-05-06T09:25:41.438Z,23.00
2023-05-06T09:28:10.485Z,22.72
2023-05-06T09:30:41.179Z,22.68
2023-05-06T09:33:07.785Z,22.35
2023-05-06T09:35:42.786Z,21.80
2023-05-06T09:38:10.399Z,21.49
2023-05-06T09:40:38.125Z,21.73
2023-05-06T09:43:05.978Z,22.37
2023-05-06T09:45:32.602Z,22.88
2023-05-06T09:47:59.179Z,23.46
2023-05-06T09:50:25.637Z,23.35
2023-05-06T09:52:52.249Z,22.63
2023-05-06T09:55:22.076Z,21.78
2023-05-06T09:57:50.162Z,21.85
2023-05-06T10:00:17.352Z,22.30
2023-05-06T10:02:45.118Z,22.83
2023-05-06T10:05:12.881Z,23.23
2023-05-06T10:07:40.785Z,23.61
2023-05-06T10:10:09.555Z,24.38
2023-05-06T10:12:38.007Z,24.36
2023-05-06T10:15:05.442Z,23.88
2023-05-06T10:17:35.270Z,24.21
2023-05-06T10:20:02.430Z,24.56
2023-05-06T10:22:40.898Z,24.53
2023-05-06T10:25:26.912Z,24.00
2023-05-06T10:27:53.242Z,24.52
2023-05-06T10:30:20.138Z,23.65
2023-05-06T10:32:46.569Z,22.87
2023-05-06T10:35:22.589Z,22.11
2023-05-06T10:37:51.285Z,21.82
2023-05-06T10:40:19.246Z,22.13
2023-05-06T10:42:45.555Z,21.94
2023-05-06T10:45:12.152Z,22.03
2023-05-06T10:47:56.921Z,21.79
2023-05-06T10:50:24.745Z,21.37
2023-05-06T10:52:55.921Z,21.02
2023-05-06T10:55:36.735Z,20.68
2023-05-06T10:58:21.162Z,20.41
2023-05-06T11:00:54.451Z,20.51
2023-05-06T11:03:23.847Z,20.55
2023-05-06T11:05:51.543Z,20.93
2023-05-06T11:08:22.724Z,21.22
2023-05-06T11:10:49.432Z,20.93
2023-05-06T11:13:25.898Z,20.70
2023-05-06T11:15:53.656Z,20.64
2023-05-06T11:18:26.103Z,20.89
2023-05-06T11:21:02.328Z,20.89
2023-05-06T11:23:47.071Z,21.18
2023-05-06T11:26:14.078Z,21.25
2023-05-06T11:28:43.486Z,22.06
2023-05-06T11:31:10.338Z,21.68
2023-05-06T11:33:37.496Z,21.38
2023-05-06T11:36:04.885Z,21.13
2023-05-06T11:38:45.669Z,21.34
2023-05-06T11:41:12.937Z,21.73
2023-05-06T11:43:39.392Z,21.87
2023-05-06T11:46:05.953Z,21.81
2023-05-06T11:48:32.288Z,21.34
2023-05-06T11:50:58.738Z,21.65
2023-05-06T11:53:25.188Z,21.27
2023-05-06T11:55:53.462Z,20.98
2023-05-06T11:58:26.545Z,20.79
2023-05-06T12:00:54.927Z,20.72
2023-05-06T12:03:22.301Z,20.84
2023-05-06T12:05:50.034Z,20.93
2023-05-06T12:08:26.640Z,20.98
2023-05-06T12:10:56.667Z,21.05
2023-05-06T12:13:23.412Z,20.93
2023-05-06T12:15:50.459Z,21.17
2023-05-06T12:18:17.382Z,21.49
2023-05-06T12:20:44.261Z,21.52
2023-05-06T12:23:12.957Z,21.56
2023-05-06T12:25:40.793Z,21.96
2023-05-06T12:28:21.022Z,21.94
2023-05-06T12:30:47.743Z,21.77
2023-05-06T12:33:14.141Z,21.87
2023-05-06T12:38:18.065Z,21.97
2023-05-06T12:40:52.184Z,22.17
2023-05-06T12:43:18.596Z,22.32
2023-05-06T12:46:03.491Z,22.43
2023-05-06T12:48:30.016Z,22.65
2023-05-06T12:50:56.463Z,22.68
2023-05-06T12:53:41.075Z,22.57
2023-05-06T12:56:07.674Z,22.39
2023-05-06T12:58:34.095Z,21.88
2023-05-06T13:01:00.433Z,21.64
2023-05-06T13:03:27.054Z,21.66
2023-05-06T13:05:54.086Z,21.61
2023-05-06T13:08:20.552Z,21.60
2023-05-06T13:10:47.022Z,21.55
2023-05-06T13:13:13.472Z,21.44
2023-05-06T13:15:39.944Z,21.26
2023-05-06T13:18:06.436Z,21.16
2023-05-06T13:20:32.833Z,21.04
2023-05-06T13:22:59.232Z,20.94
2023-05-06T13:25:25.534Z,20.77
2023-05-06T13:27:53.105Z,20.77
2023-05-06T13:30:19.542Z,20.78
2023-05-06T13:32:46.713Z,20.65
2023-05-06T13:35:13.417Z,20.79
2023-05-06T13:37:39.886Z,20.88
2023-05-06T13:40:07.112Z,20.76
2023-05-06T13:42:33.510Z,20.75
2023-05-06T13:44:59.799Z,20.74
2023-05-06T13:47:26.241Z,20.74
2023-05-06T13:49:52.675Z,20.70
2023-05-06T13:52:19.051Z,20.82
2023-05-06T13:54:45.484Z,20.95
2023-05-06T13:57:11.792Z,20.91
2023-05-06T13:59:38.221Z,21.01
2023-05-06T14:02:08.022Z,21.29
2023-05-06T14:04:35.506Z,21.29
2023-05-06T14:07:02.026Z,21.27
2023-05-06T14:09:28.390Z,21.72
2023-05-06T14:11:54.917Z,21.58
2023-05-06T14:14:21.498Z,21.58
2023-05-06T14:16:47.940Z,21.67
2023-05-06T14:19:14.566Z,21.51
2023-05-06T14:21:41.020Z,21.55
2023-05-06T14:24:08.037Z,21.68
2023-05-06T14:26:34.778Z,21.40
2023-05-06T14:29:01.136Z,21.16
2023-05-06T14:31:27.509Z,21.16
2023-05-06T14:33:53.893Z,21.00
2023-05-06T14:36:20.311Z,20.95
2023-05-06T14:38:46.665Z,20.75
2023-05-06T14:41:13.342Z,20.73
2023-05-06T14:43:39.693Z,20.78
2023-05-06T14:46:06.158Z,20.75
2023-05-06T14:48:32.538Z,20.69
2023-05-06T14:50:59.482Z,20.85
2023-05-06T14:53:25.873Z,20.96
2023-05-06T14:55:52.287Z,20.97
2023-05-06T14:58:18.719Z,20.96
2023-05-06T15:00:45.216Z,21.05
2023-05-06T15:03:11.896Z,21.32
2023-05-06T15:05:38.333Z,21.33
2023-05-06T15:08:04.694Z,21.38
2023-05-06T15:10:31.122Z,21.52
2023-05-06T15:12:57.500Z,21.45
2023-05-06T15:15:24.031Z,21.38
2023-05-06T15:17:50.415Z,21.38
2023-05-06T15:20:16.741Z,21.31
2023-05-06T15:22:43.255Z,21.40
2023-05-06T15:25:16.603Z,21.29
2023-05-06T15:27:49.055Z,21.55
2023-05-06T15:30:15.560Z,21.75
2023-05-06T15:32:42.053Z,22.09
2023-05-06T15:35:08.875Z,22.66
2023-05-06T15:37:36.138Z,23.32
2023-05-06T15:40:02.491Z,23.48
2023-05-06T15:42:29.570Z,23.50
2023-05-06T15:44:55.877Z,23.16
2023-05-06T15:47:22.202Z,22.93
2023-05-06T15:49:54.350Z,22.70
2023-05-06T15:52:21.427Z,22.51
2023-05-06T15:54:50.023Z,22.27
2023-05-06T15:57:17.020Z,22.20
2023-05-06T15:59:43.579Z,22.00
2023-05-06T16:04:39.444Z,21.79
2023-05-06T16:07:05.918Z,21.63
2023-05-06T16:09:32.257Z,21.60
2023-05-06T16:11:58.660Z,21.57
2023-05-06T16:14:25.009Z,21.38
2023-05-06T16:16:51.434Z,21.32
2023-05-06T16:19:17.858Z,21.25
2023-05-06T16:21:44.167Z,21.10
2023-05-06T16:24:10.671Z,21.18
2023-05-06T16:26:37.340Z,21.02
2023-05-06T16:29:03.678Z,21.00
2023-05-06T16:31:30.321Z,21.02
2023-05-06T16:33:57.042Z,21.25
2023-05-06T16:36:23.361Z,21.24
2023-05-06T16:38:49.762Z,21.29
2023-05-06T16:41:16.157Z,21.42
2023-05-06T16:43:42.458Z,21.55
2023-05-06T16:46:08.857Z,21.63
2023-05-06T16:48:35.273Z,21.67
2023-05-06T16:51:01.654Z,21.68
2023-05-06T16:53:28.201Z,21.57
2023-05-06T16:55:55.248Z,21.44
2023-05-06T16:58:21.951Z,21.27
2023-05-06T17:00:48.636Z,21.02
2023-05-06T17:03:15.223Z,20.77
2023-05-06T17:05:41.609Z,20.71
2023-05-06T17:08:08.296Z,20.66
2023-05-06T17:10:35.127Z,20.58
2023-05-06T17:13:01.549Z,20.39
2023-05-06T17:15:27.979Z,20.32
2023-05-06T17:17:54.304Z,20.29
2023-05-06T17:20:20.700Z,20.25
2023-05-06T17:22:47.077Z,20.13
2023-05-06T17:25:13.586Z,20.13
2023-05-06T17:27:40.131Z,20.07
2023-05-06T17:30:07.687Z,19.93
2023-05-06T17:32:34.091Z,19.95
2023-05-06T17:35:00.502Z,19.91
2023-05-06T17:37:26.877Z,19.88
2023-05-06T17:39:53.309Z,19.80
2023-05-06T17:42:19.732Z,19.75
2023-05-06T17:44:46.114Z,19.67
2023-05-06T17:47:12.852Z,19.58
2023-05-06T17:49:39.233Z,19.50
2023-05-06T17:52:05.674Z,19.42
2023-05-06T17:54:32.004Z,19.45
2023-05-06T17:56:58.404Z,19.33
2023-05-06T17:59:26.180Z,19.32
2023-05-06T18:01:54.037Z,19.28
2023-05-06T18:04:20.342Z,19.14
2023-05-06T18:06:46.712Z,19.00
2023-05-06T18:09:13.032Z,18.82
2023-05-06T18:11:39.572Z,18.88
2023-05-06T18:14:06.003Z,18.93
2023-05-06T18:16:32.609Z,18.82
2023-05-06T18:18:59.049Z,18.85
2023-05-06T18:21:25.345Z,18.88
2023-05-06T18:23:58.668Z,18.78
2023-05-06T18:26:43.822Z,18.75
2023-05-06T18:29:12.018Z,18.63
2023-05-06T18:31:38.667Z,18.51
2023-05-06T18:34:05.211Z,18.43
2023-05-06T18:36:31.516Z,18.37
2023-05-06T18:38:57.881Z,18.24
2023-05-06T18:41:24.453Z,18.15
2023-05-06T18:43:50.887Z,18.18
2023-05-06T18:46:17.288Z,18.07
2023-05-06T18:48:43.711Z,18.00
2023-05-06T18:51:14.893Z,17.95
2023-05-06T18:53:41.678Z,17.91
2023-05-06T18:56:09.006Z,17.88
2023-05-06T18:58:36.911Z,17.83
2023-05-06T19:01:04.436Z,17.87
2023-05-06T19:03:32.839Z,17.89
2023-05-06T19:06:00.310Z,17.80
2023-05-06T19:08:26.765Z,17.78
2023-05-06T19:10:53.118Z,17.63
2023-05-06T19:13:19.671Z,17.70
2023-05-06T19:15:46.114Z,17.55
2023-05-06T19:18:12.668Z,17.57
2023-05-06T19:20:38.961Z,17.67
2023-05-06T19:23:05.368Z,17.46
2023-05-06T19:25:35.496Z,17.35
2023-05-06T19:28:02.030Z,17.23
2023-05-06T19:30:31.150Z,17.13
2023-05-06T19:32:58.523Z,17.14
2023-05-06T19:35:25.057Z,17.14
2023-05-06T19:37:51.679Z,17.00
2023-05-06T19:40:18.058Z,17.11
2023-05-06T19:42:45.177Z,17.06
2023-05-06T19:45:12.442Z,16.94
2023-05-06T19:47:39.171Z,16.89
2023-05-06T19:50:06.507Z,16.87
2023-05-06T19:52:33.159Z,16.78
2023-05-06T19:55:00.295Z,16.55
2023-05-06T19:57:26.655Z,16.56
2023-05-06T19:59:53.961Z,16.32
2023-05-06T20:02:20.608Z,16.40
2023-05-06T20:04:47.068Z,16.45
2023-05-06T20:07:13.497Z,16.46
2023-05-06T20:09:39.838Z,16.52
2023-05-06T20:12:07.059Z,16.41
2023-05-06T20:14:33.347Z,16.40
2023-05-06T20:16:59.752Z,16.37
2023-05-06T20:19:26.044Z,16.20
2023-05-06T20:21:52.364Z,16.16
2023-05-06T20:24:18.749Z,16.25
2023-05-06T20:26:45.042Z,16.08
2023-05-06T20:29:11.438Z,16.37
2023-05-06T20:31:37.911Z,16.38
2023-05-06T20:34:04.321Z,16.27
2023-05-06T20:36:30.656Z,16.06
2023-05-06T20:38:57.031Z,16.03
2023-05-06T20:41:23.386Z,16.07
2023-05-06T20:43:51.008Z,16.16
2023-05-06T20:46:17.753Z,16.09
2023-05-06T20:48:44.256Z,15.82
2023-05-06T20:51:10.798Z,15.78
2023-05-06T20:53:37.156Z,15.81
2023-05-06T20:56:03.684Z,15.71
2023-05-06T20:58:30.090Z,15.58
2023-05-06T21:00:57.826Z,15.79
2023-05-06T21:03:24.484Z,15.66
2023-05-06T21:05:52.093Z,15.67
2023-05-06T21:08:18.538Z,15.47
2023-05-06T21:10:44.828Z,15.38
2023-05-06T21:13:11.418Z,15.35
2023-05-06T21:15:38.055Z,15.42
2023-05-06T21:18:04.526Z,15.29
2023-05-06T21:20:30.966Z,15.27
2023-05-06T21:22:58.741Z,15.20
2023-05-06T21:25:25.209Z,15.07
2023-05-06T21:27:51.773Z,15.13
2023-05-06T21:30:18.167Z,15.42
2023-05-06T21:32:44.553Z,15.10
2023-05-06T21:35:11.492Z,15.03
2023-05-06T21:37:38.161Z,14.90
2023-05-06T21:40:05.029Z,15.08
2023-05-06T21:42:31.481Z,15.04
2023-05-06T21:44:57.779Z,15.00
2023-05-06T21:47:25.773Z,14.89
2023-05-06T21:49:52.228Z,14.93
2023-05-06T21:52:18.611Z,14.70
2023-05-06T21:54:47.776Z,14.90
2023-05-06T21:57:14.180Z,14.77
2023-05-06T21:59:40.654Z,14.72
2023-05-06T22:02:07.042Z,14.66
2023-05-06T22:04:33.582Z,14.64
2023-05-06T22:07:00.041Z,14.56
2023-05-06T22:09:26.421Z,14.62
2023-05-06T22:11:52.798Z,14.51
2023-05-06T22:14:21.912Z,14.49
2023-05-06T22:16:50.854Z,14.67
2023-05-06T22:19:17.164Z,14.60
2023-05-06T22:21:43.537Z,14.52
2023-05-06T22:24:10.042Z,14.72
2023-05-06T22:26:36.348Z,14.51
2023-05-06T22:29:02.808Z,14.54
2023-05-06T22:31:29.180Z,14.55
2023-05-06T22:33:55.782Z,14.62
2023-05-06T22:36:22.155Z,14.46
2023-05-06T22:38:48.544Z,14.45
2023-05-06T22:41:14.840Z,14.40
2023-05-06T22:43:41.223Z,14.55
2023-05-06T22:46:07.574Z,14.35
2023-05-06T22:48:34.037Z,14.16
2023-05-06T22:51:00.826Z,14.28
2023-05-06T22:53:27.153Z,14.34
2023-05-06T22:55:54.078Z,14.41
2023-05-06T22:58:20.565Z,14.15
2023-05-06T23:00:47.140Z,14.05
2023-05-06T23:03:14.568Z,13.94
2023-05-06T23:05:41.330Z,14.02
2023-05-06T23:08:07.911Z,13.89
2023-05-06T23:10:34.327Z,13.90
2023-05-06T23:13:01.783Z,13.87
2023-05-06T23:15:28.822Z,13.79
2023-05-06T23:17:55.307Z,13.82
2023-05-06T23:20:22.115Z,13.85
2023-05-06T23:22:48.422Z,13.79
2023-05-06T23:25:15.242Z,13.72
2023-05-06T23:27:42.998Z,13.95
2023-05-06T23:30:10.497Z,14.11
2023-05-06T23:32:37.209Z,13.92
2023-05-06T23:35:04.230Z,13.89
2023-05-06T23:37:31.066Z,13.79
2023-05-06T23:39:57.814Z,13.78
2023-05-06T23:42:25.757Z,13.93
2023-05-06T23:44:52.904Z,13.64
2023-05-06T23:47:19.231Z,13.85
2023-05-06T23:49:45.643Z,13.83
2023-05-06T23:52:12.106Z,13.63
2023-05-06T23:54:38.419Z,13.41
2023-05-06T23:57:07.020Z,13.66
2023-05-06T23:59:33.508Z,13.55
